Pagrindinis puslapis
METAR-TAF:

METAR-TAF

Oro uostai :

Rodezas, Prancūzija

platuma: 44-24N, ilguma: 002-29E, Aukštis: 581 m

Dabartinis oras

Ataskaita buvo paskelbta 18 minutes, ne 21:30 UTC
Vėjas 4 kt iš Vakarų/Šiaurės Vakarų
Temperatūra 8°C
Drėgmė 57%
Slėgis 1018 hPa
Matomumas 10 km arba daugiau
nėra debesų žemiau 1500 m ir nėra kamuolinių lietaus debesų

METAR: LFCR 282130Z AUTO 29004KT CAVOK 08/M00 Q1018

Laikas: 22:48 (21:48 UTC)

Prognozė

Ataskaita buvo paskelbta 28 valandos ir 48 minutes, ne 17:00 UTC
Prognozė galioja nuo 27 metu 18 UTC su 28 metu 18 UTC
Vėjas 5 kt iš Vakarų
Matomumas 10 km arba daugiau
nėra debesų žemiau 1500 m ir nėra kamuolinių lietaus debesų

TAF: LFCR 271700Z 2718/2818 28005KT CAVOK

Orai ataskaitas ir orų prognozės (METAR, TAF).

turimą stotys yra geltonos ir raudonos taškus žemėlapyje.

Perkelti pele per norėdami pamatyti stoties vardą.

Tada spustelėkite, norėdami matyti oro stebėjimo ir prognozės.

Norėdami pakeisti žemėlapį: spustelėkite ant žalios mygtukų su juodo kryžiaus žemyn,; žalią mygtuką su brūkšneliu, jei norite nutolinti; arba žalių rodyklių gretimoms žemėlapius.


METAR-TAF: